createdAt,value
2023-05-14T00:02:50.391Z,42.20
2023-05-14T00:07:53.600Z,42.10
2023-05-14T00:12:58.117Z,42.20
2023-05-14T00:18:01.799Z,42.30
2023-05-14T00:23:04.925Z,42.20
2023-05-14T00:28:09.387Z,42.30
2023-05-14T00:33:12.474Z,42.50
2023-05-14T00:38:17.697Z,42.40
2023-05-14T00:43:23.173Z,42.50
2023-05-14T00:48:26.974Z,42.70
2023-05-14T00:53:30.210Z,42.70
2023-05-14T00:58:34.871Z,42.80
2023-05-14T01:03:38.436Z,43.00
2023-05-14T01:09:00.653Z,42.90
2023-05-14T01:14:14.614Z,43.40
2023-05-14T01:19:23.593Z,43.50
2023-05-14T01:24:28.177Z,43.50
2023-05-14T01:29:33.565Z,43.20
2023-05-14T01:34:38.914Z,43.10
2023-05-14T01:39:43.785Z,43.20
2023-05-14T01:44:46.895Z,43.30
2023-05-14T01:49:49.965Z,43.10
2023-05-14T01:54:54.548Z,43.10
2023-05-14T01:59:57.813Z,43.40
2023-05-14T02:05:00.944Z,43.20
2023-05-14T02:10:05.824Z,43.20
2023-05-14T02:15:11.069Z,43.40
2023-05-14T02:20:14.824Z,43.20
2023-05-14T02:25:19.324Z,43.20
2023-05-14T02:30:23.450Z,43.40
2023-05-14T02:35:26.863Z,43.20
2023-05-14T02:40:31.323Z,43.30
2023-05-14T02:45:34.478Z,43.50
2023-05-14T02:50:37.668Z,43.40
2023-05-14T02:55:42.393Z,43.40
2023-05-14T03:00:45.517Z,43.80
2023-05-14T03:05:49.040Z,43.60
2023-05-14T03:10:53.506Z,43.70
2023-05-14T03:15:57.049Z,43.90
2023-05-14T03:21:00.247Z,43.70
2023-05-14T03:26:04.994Z,43.70
2023-05-14T03:31:08.315Z,43.90
2023-05-14T03:36:11.449Z,43.80
2023-05-14T03:41:15.943Z,43.80
2023-05-14T03:46:19.022Z,44.10
2023-05-14T03:51:22.175Z,43.70
2023-05-14T03:56:26.809Z,43.60
2023-05-14T04:01:29.910Z,44.00
2023-05-14T04:06:34.016Z,43.80
2023-05-14T04:11:38.782Z,43.80
2023-05-14T04:16:41.994Z,44.00
2023-05-14T04:21:45.311Z,43.90
2023-05-14T04:26:49.874Z,43.90
2023-05-14T04:31:52.989Z,44.30
2023-05-14T04:36:56.093Z,44.10
2023-05-14T04:42:00.977Z,44.10
2023-05-14T04:47:04.160Z,44.40
2023-05-14T04:52:08.122Z,44.10
2023-05-14T04:57:12.564Z,44.20
2023-05-14T05:02:15.822Z,44.40
2023-05-14T05:07:18.934Z,44.10
2023-05-14T05:12:23.432Z,44.10
2023-05-14T05:17:26.651Z,44.40
2023-05-14T05:22:29.737Z,44.20
2023-05-14T05:27:34.413Z,44.10
2023-05-14T05:32:37.833Z,43.90
2023-05-14T05:37:41.234Z,43.80
2023-05-14T05:42:45.757Z,43.80
2023-05-14T05:47:48.837Z,44.10
2023-05-14T05:52:52.161Z,44.10
2023-05-14T05:57:57.022Z,44.30
2023-05-14T06:03:00.307Z,44.30
2023-05-14T06:08:04.413Z,44.10
2023-05-14T06:13:08.858Z,43.80
2023-05-14T06:18:11.925Z,44.00
2023-05-14T06:23:15.022Z,43.60
2023-05-14T06:28:19.552Z,43.40
2023-05-14T06:33:29.862Z,43.50
2023-05-14T06:38:33.302Z,43.40
2023-05-14T06:43:37.773Z,43.20
2023-05-14T06:48:40.904Z,43.20
2023-05-14T06:53:43.993Z,43.10
2023-05-14T06:58:48.572Z,43.20
2023-05-14T07:03:51.687Z,42.80
2023-05-14T07:08:55.336Z,42.70
2023-05-14T07:13:59.923Z,42.60
2023-05-14T07:19:03.070Z,42.90
2023-05-14T07:24:06.973Z,43.10
2023-05-14T07:29:11.452Z,43.30
2023-05-14T07:34:14.552Z,42.90
2023-05-14T07:39:17.632Z,43.00
2023-05-14T07:44:22.268Z,42.90
2023-05-14T07:49:25.404Z,42.60
2023-05-14T07:54:28.527Z,42.70
2023-05-14T07:59:33.190Z,42.80
2023-05-14T08:04:36.486Z,42.90
2023-05-14T08:09:41.032Z,43.30
2023-05-14T08:14:46.090Z,43.20
2023-05-14T08:19:49.530Z,42.90
2023-05-14T08:24:52.670Z,42.90
2023-05-14T08:29:57.166Z,43.00
2023-05-14T08:35:00.405Z,42.50
2023-05-14T08:40:03.680Z,42.40
2023-05-14T08:45:13.857Z,42.30
2023-05-14T08:50:17.140Z,41.40
2023-05-14T08:55:20.965Z,42.00
2023-05-14T09:00:26.651Z,42.00
2023-05-14T09:05:30.151Z,42.20
2023-05-14T09:10:33.607Z,41.80
2023-05-14T09:15:41.369Z,41.60
2023-05-14T09:20:44.672Z,41.00
2023-05-14T09:25:49.230Z,41.30
2023-05-14T09:30:53.763Z,41.00
2023-05-14T09:36:00.739Z,40.40
2023-05-14T09:41:04.184Z,40.40
2023-05-14T09:46:08.718Z,41.10
2023-05-14T09:51:12.186Z,41.00
2023-05-14T09:56:16.531Z,41.10
2023-05-14T10:01:21.332Z,41.00
2023-05-14T10:06:28.595Z,40.10
2023-05-14T10:11:34.595Z,39.70
2023-05-14T10:16:44.737Z,40.10
2023-05-14T10:21:53.243Z,39.20
2023-05-14T10:26:58.726Z,39.90
2023-05-14T10:32:06.955Z,40.40
2023-05-14T10:37:12.668Z,39.20
2023-05-14T10:42:18.765Z,39.70
2023-05-14T10:47:23.910Z,39.60
2023-05-14T10:52:27.810Z,39.00
2023-05-14T10:57:32.732Z,39.40
2023-05-14T11:02:38.733Z,39.20
2023-05-14T11:07:43.518Z,38.70
2023-05-14T11:12:48.263Z,38.90
2023-05-14T11:17:53.746Z,38.90
2023-05-14T11:22:56.911Z,38.30
2023-05-14T11:28:00.884Z,39.00
2023-05-14T11:33:05.724Z,39.20
2023-05-14T11:38:09.320Z,38.40
2023-05-14T11:43:12.924Z,38.80
2023-05-14T11:48:18.097Z,38.10
2023-05-14T11:53:25.832Z,37.20
2023-05-14T11:58:29.089Z,37.90
2023-05-14T12:03:33.659Z,37.80
2023-05-14T12:08:37.991Z,37.10
2023-05-14T12:13:41.196Z,37.00
2023-05-14T12:18:45.848Z,37.00
2023-05-14T12:23:49.058Z,36.90
2023-05-14T12:28:57.844Z,36.90
2023-05-14T12:34:02.313Z,36.90
2023-05-14T12:39:06.134Z,36.70
2023-05-14T12:44:09.324Z,37.00
2023-05-14T12:49:13.904Z,37.00
2023-05-14T12:54:17.113Z,36.60
2023-05-14T12:59:20.312Z,37.20
2023-05-14T13:04:24.852Z,36.90
2023-05-14T13:09:28.700Z,36.40
2023-05-14T13:14:31.817Z,36.70
2023-05-14T13:19:36.318Z,36.20
2023-05-14T13:24:39.474Z,35.40
2023-05-14T13:29:42.550Z,35.70
2023-05-14T13:34:47.051Z,35.30
2023-05-14T13:39:51.438Z,34.80
2023-05-14T13:44:56.364Z,35.50
2023-05-14T13:50:01.002Z,35.30
2023-05-14T13:55:04.347Z,35.20
2023-05-14T14:00:09.596Z,34.70
2023-05-14T14:05:14.306Z,34.60
2023-05-14T14:10:17.559Z,34.80
2023-05-14T14:15:20.925Z,34.80
2023-05-14T14:20:25.453Z,34.70
2023-05-14T14:25:28.593Z,34.10
2023-05-14T14:30:31.843Z,34.10
2023-05-14T14:35:37.411Z,34.30
2023-05-14T14:40:40.544Z,33.80
2023-05-14T14:45:46.336Z,34.50
2023-05-14T14:50:52.848Z,34.80
2023-05-14T14:55:56.103Z,33.50
2023-05-14T15:00:59.896Z,34.20
2023-05-14T15:06:04.361Z,34.10
2023-05-14T15:11:07.533Z,33.30
2023-05-14T15:16:11.284Z,34.70
2023-05-14T15:21:15.884Z,33.90
2023-05-14T15:26:19.016Z,34.00
2023-05-14T15:31:22.578Z,34.50
2023-05-14T15:36:27.153Z,34.80
2023-05-14T15:41:31.264Z,34.60
2023-05-14T15:46:34.533Z,34.60
2023-05-14T15:51:39.100Z,35.00
2023-05-14T15:56:42.305Z,35.00
2023-05-14T16:01:45.551Z,35.10
2023-05-14T16:06:50.074Z,35.50
2023-05-14T16:11:53.123Z,35.50
2023-05-14T16:16:56.339Z,35.70
2023-05-14T16:22:00.920Z,35.80
2023-05-14T16:27:04.614Z,35.90
2023-05-14T16:32:08.051Z,36.10
2023-05-14T16:37:13.748Z,35.60
2023-05-14T16:42:16.843Z,35.80
2023-05-14T16:47:20.042Z,35.70
2023-05-14T16:52:24.536Z,35.70
2023-05-14T16:57:27.682Z,35.70
2023-05-14T17:02:31.188Z,35.60
2023-05-14T17:07:35.798Z,35.60
2023-05-14T17:12:39.146Z,35.50
2023-05-14T17:17:42.321Z,35.50
2023-05-14T17:22:46.799Z,35.50
2023-05-14T17:27:49.951Z,35.50
2023-05-14T17:32:53.214Z,35.90
2023-05-14T17:37:59.391Z,36.20
2023-05-14T17:43:03.578Z,36.30
2023-05-14T17:48:07.450Z,36.30
2023-05-14T17:53:11.977Z,36.40
2023-05-14T17:58:16.313Z,36.80
2023-05-14T18:03:20.413Z,36.60
2023-05-14T18:08:25.110Z,36.80
2023-05-14T18:13:28.325Z,37.00
2023-05-14T18:18:32.311Z,36.80
2023-05-14T18:23:36.834Z,37.10
2023-05-14T18:28:40.112Z,37.30
2023-05-14T18:33:43.482Z,37.10
2023-05-14T18:38:48.005Z,37.10
2023-05-14T18:43:51.261Z,37.50
2023-05-14T18:48:54.490Z,37.40
2023-05-14T18:53:59.182Z,37.40
2023-05-14T18:59:02.566Z,37.50
2023-05-14T19:04:07.419Z,37.20
2023-05-14T19:09:12.166Z,37.40
2023-05-14T19:14:15.432Z,37.40
2023-05-14T19:19:18.760Z,37.30
2023-05-14T19:24:23.562Z,37.30
2023-05-14T19:29:27.019Z,37.70
2023-05-14T19:34:30.219Z,37.60
2023-05-14T19:39:34.982Z,37.70
2023-05-14T19:44:38.159Z,38.10
2023-05-14T19:49:41.364Z,38.10
2023-05-14T19:54:45.860Z,38.00
2023-05-14T19:59:48.981Z,38.50
2023-05-14T20:04:55.434Z,38.20
2023-05-14T20:09:59.971Z,38.20
2023-05-14T20:15:04.188Z,38.30
2023-05-14T20:20:09.814Z,38.10
2023-05-14T20:25:14.439Z,38.40
2023-05-14T20:30:17.620Z,38.70
2023-05-14T20:35:20.876Z,38.40
2023-05-14T20:40:25.693Z,38.30
2023-05-14T20:45:28.878Z,38.70
2023-05-14T20:50:31.959Z,38.40
2023-05-14T20:55:36.414Z,38.40
2023-05-14T21:00:39.556Z,38.80
2023-05-14T21:05:43.770Z,38.40
2023-05-14T21:10:48.296Z,38.40
2023-05-14T21:15:51.626Z,38.90
2023-05-14T21:20:54.736Z,38.80
2023-05-14T21:25:59.198Z,39.00
2023-05-14T21:31:02.291Z,39.40
2023-05-14T21:36:05.931Z,39.30
2023-05-14T21:41:10.442Z,39.40
2023-05-14T21:46:13.524Z,39.70
2023-05-14T21:51:16.726Z,39.60
2023-05-14T21:56:22.565Z,39.60
2023-05-14T22:01:25.743Z,40.10
2023-05-14T22:06:28.967Z,39.90
2023-05-14T22:11:33.587Z,40.10
2023-05-14T22:16:37.169Z,40.50
2023-05-14T22:21:40.310Z,40.30
2023-05-14T22:26:45.129Z,40.20
2023-05-14T22:31:48.365Z,40.70
2023-05-14T22:36:51.500Z,40.30
2023-05-14T22:41:56.086Z,40.30
2023-05-14T22:46:59.685Z,40.80
2023-05-14T22:52:03.210Z,40.50
2023-05-14T22:57:08.060Z,40.50
2023-05-14T23:02:11.301Z,41.00
2023-05-14T23:07:14.483Z,40.70
2023-05-14T23:12:19.025Z,40.70
2023-05-14T23:17:22.257Z,41.20
2023-05-14T23:22:25.399Z,40.90
2023-05-14T23:27:29.930Z,40.90
2023-05-14T23:32:33.096Z,41.20
2023-05-14T23:37:41.646Z,41.00
2023-05-14T23:42:46.529Z,41.20
2023-05-14T23:47:49.664Z,41.50
2023-05-14T23:52:53.691Z,41.20
2023-05-14T23:57:58.173Z,41.30
